Time;durP1;ratioP1;P1;durP2;ratioP2;P2;SDS_P1;SDS_P2;PMS_P1;PMS_P2;Temp;Humidity;BMP_temperature;BMP_pressure;BME280_temperature;BME280_humidity;BME280_pressure;Samples;Min_cycle;Max_cycle;Signal;HPM_P1;HPM_P2
2023/07/16 00:00:23;;;;;;;5.25;2.30;;;;;;;15.85;70.98;98605.31;5007972;28;20128;-44
2023/07/16 00:02:49;;;;;;;7.18;2.20;;;;;;;15.82;70.27;98600.22;5011933;28;20049;-44
2023/07/16 00:05:16;;;;;;;9.15;2.83;;;;;;;15.78;70.58;98611.75;5004760;28;20050;-45
2023/07/16 00:07:43;;;;;;;6.32;2.30;;;;;;;15.75;70.43;98622.31;4999358;28;20074;-44
2023/07/16 00:10:10;;;;;;;7.68;3.05;;;;;;;15.75;70.74;98622.31;5012495;28;20124;-46
2023/07/16 00:12:37;;;;;;;9.07;2.83;;;;;;;15.73;70.90;98626.75;5004881;28;20081;-43
2023/07/16 00:15:06;;;;;;;5.15;2.50;;;;;;;15.75;70.51;98632.75;5011806;28;20485;-45
2023/07/16 00:17:34;;;;;;;8.75;2.33;;;;;;;15.75;70.90;98632.75;5012331;28;20144;-43
2023/07/16 00:20:02;;;;;;;5.30;2.30;;;;;;;15.76;70.69;98640.53;5003295;28;20081;-42
2023/07/16 00:22:29;;;;;;;7.35;2.33;;;;;;;15.77;70.26;98644.81;4998530;28;20058;-44
2023/07/16 00:24:57;;;;;;;4.90;2.00;;;;;;;15.77;70.88;98651.81;5011471;28;20541;-44
2023/07/16 00:27:26;;;;;;;7.45;2.70;;;;;;;15.78;70.98;98656.94;5014543;28;20490;-43
2023/07/16 00:29:54;;;;;;;3.88;2.85;;;;;;;15.81;70.48;98648.16;5002755;28;20080;-44
2023/07/16 00:32:23;;;;;;;6.13;2.30;;;;;;;15.83;70.34;98643.69;4990831;28;20046;-46
2023/07/16 00:34:52;;;;;;;5.72;3.40;;;;;;;15.81;70.18;98643.75;4997469;28;20122;-43
2023/07/16 00:37:21;;;;;;;5.57;2.97;;;;;;;15.81;71.06;98635.09;4992584;28;20108;-45
2023/07/16 00:39:51;;;;;;;5.78;1.30;;;;;;;15.80;69.82;98647.28;4988265;28;20521;-47
2023/07/16 00:42:19;;;;;;;8.55;1.25;;;;;;;15.77;70.52;98657.88;4994538;28;20473;-46
2023/07/16 00:44:48;;;;;;;11.10;1.90;;;;;;;15.73;69.96;98656.31;5012382;28;20480;-46
2023/07/16 00:47:17;;;;;;;7.15;2.97;;;;;;;15.72;70.57;98661.59;5003481;28;20046;-46
2023/07/16 00:49:45;;;;;;;6.15;2.67;;;;;;;15.70;70.69;98663.47;5003574;28;20053;-45
2023/07/16 00:52:18;;;;;;;6.50;1.65;;;;;;;15.65;70.18;98671.50;5005837;28;20394;-45
2023/07/16 00:54:48;;;;;;;8.20;2.97;;;;;;;15.59;70.32;98685.66;5006769;28;20060;-47
2023/07/16 00:57:17;;;;;;;8.25;2.78;;;;;;;15.60;69.96;98687.34;4998659;28;20658;-45
2023/07/16 00:59:45;;;;;;;6.28;2.03;;;;;;;15.59;69.86;98688.28;4997425;28;20085;-46
2023/07/16 01:02:11;;;;;;;6.65;1.85;;;;;;;15.61;70.33;98683.00;4991883;28;20057;-45
2023/07/16 01:04:38;;;;;;;8.15;3.08;;;;;;;15.62;70.97;98688.16;4988290;28;20054;-47
2023/07/16 01:07:11;;;;;;;5.57;2.15;;;;;;;15.65;70.53;98689.75;4994292;28;20052;-44
2023/07/16 01:09:42;;;;;;;5.57;2.28;;;;;;;15.65;69.92;98694.97;4990409;28;20505;-44
2023/07/16 01:12:09;;;;;;;6.90;2.97;;;;;;;15.66;70.47;98697.53;5000571;28;20061;-49
2023/07/16 01:14:38;;;;;;;9.20;1.48;;;;;;;15.65;70.43;98695.84;4990184;28;20556;-47
2023/07/16 01:17:06;;;;;;;8.30;2.95;;;;;;;15.68;70.25;98702.69;4985408;28;20133;-43
2023/07/16 01:19:34;;;;;;;5.55;2.40;;;;;;;15.68;70.05;98703.50;4979636;28;20138;-44
2023/07/16 01:28:09;;;;;;;4.32;1.10;;;;;;;15.66;69.94;98701.88;5100237;27;20373;-44
2023/07/16 01:30:39;;;;;;;4.15;1.45;;;;;;;15.74;70.49;98706.78;5034039;28;20073;-44
2023/07/16 01:33:07;;;;;;;;;;;;;;;15.57;70.64;98710.97;5029268;28;20049;-44
2023/07/16 01:35:34;;;;;;;4.60;1.13;;;;;;;15.62;70.88;98719.47;5023687;28;19921;-43
2023/07/16 01:38:01;;;;;;;5.70;1.60;;;;;;;15.71;70.01;98714.75;5023111;28;20046;-43
2023/07/16 01:40:30;;;;;;;6.60;1.45;;;;;;;15.72;70.09;98719.88;5022576;28;20091;-43
2023/07/16 01:42:57;;;;;;;9.32;1.92;;;;;;;15.74;69.91;98715.44;5021084;28;20424;-45
2023/07/16 01:45:23;;;;;;;6.57;1.27;;;;;;;15.75;70.05;98716.28;5022911;28;20050;-43
2023/07/16 01:48:03;;;;;;;7.75;1.20;;;;;;;15.74;70.46;98722.44;5023309;28;20137;-44
2023/07/16 01:50:30;;;;;;;7.22;1.95;;;;;;;15.75;70.55;98731.94;5022229;28;20053;-45
2023/07/16 01:52:56;;;;;;;7.03;1.63;;;;;;;15.76;70.11;98738.84;5019199;28;20073;-46
2023/07/16 01:55:23;;;;;;;11.38;1.70;;;;;;;15.76;69.89;98744.06;5015218;28;20061;-44
2023/07/16 01:57:50;;;;;;;8.43;1.30;;;;;;;15.75;69.98;98738.03;5022524;28;20076;-43
2023/07/16 02:00:16;;;;;;;8.27;2.20;;;;;;;15.75;69.77;98742.41;5024615;28;20060;-46
2023/07/16 02:02:43;;;;;;;6.05;1.65;;;;;;;15.73;69.84;98744.22;5022260;28;20050;-45
2023/07/16 02:05:10;;;;;;;7.60;1.65;;;;;;;15.74;69.87;98745.94;5020857;28;20052;-45
2023/07/16 02:07:37;;;;;;;7.55;1.55;;;;;;;15.73;70.08;98752.03;5021818;28;20080;-46
2023/07/16 02:10:04;;;;;;;8.13;1.05;;;;;;;15.73;69.67;98752.91;5021137;28;20118;-43
2023/07/16 02:12:31;;;;;;;7.65;1.38;;;;;;;15.72;70.21;98758.19;5022641;28;20050;-44
2023/07/16 02:14:57;;;;;;;10.88;1.08;;;;;;;15.69;69.65;98759.19;5023140;28;20050;-42
2023/07/16 02:17:24;;;;;;;8.25;2.42;;;;;;;15.68;69.95;98760.94;5022132;28;20057;-47
2023/07/16 02:19:51;;;;;;;7.07;1.67;;;;;;;15.67;69.67;98754.03;5019872;28;20049;-44
2023/07/16 02:22:18;;;;;;;5.75;1.15;;;;;;;15.63;69.76;98759.44;5020303;28;20045;-47
2023/07/16 02:24:45;;;;;;;11.95;1.75;;;;;;;15.64;69.71;98759.38;5021060;28;20050;-43
2023/07/16 02:27:12;;;;;;;7.65;1.00;;;;;;;15.65;70.03;98763.69;5022461;28;20053;-45
2023/07/16 02:29:38;;;;;;;9.20;2.00;;;;;;;15.62;69.57;98758.59;5036524;28;20052;-45
2023/07/16 02:32:06;;;;;;;12.45;2.15;;;;;;;15.63;69.78;98770.72;5040477;28;20124;-46
2023/07/16 02:34:32;;;;;;;9.65;1.90;;;;;;;15.63;69.74;98764.66;5039631;28;20045;-47
2023/07/16 02:36:59;;;;;;;10.50;2.08;;;;;;;15.59;69.59;98763.97;5038442;28;20541;-42
2023/07/16 02:39:26;;;;;;;9.73;1.50;;;;;;;15.58;69.72;98767.50;5022847;28;20053;-44
2023/07/16 02:41:53;;;;;;;9.35;1.15;;;;;;;15.60;69.50;98770.88;5031262;28;20049;-45
2023/07/16 02:44:20;;;;;;;4.47;1.55;;;;;;;15.61;69.49;98771.72;5017348;28;20492;-45
2023/07/16 02:46:46;;;;;;;7.07;1.98;;;;;;;15.60;69.38;98778.69;5016005;28;20523;-43
2023/07/16 02:49:13;;;;;;;5.70;1.35;;;;;;;15.60;69.36;98780.47;5020568;28;20541;-43
2023/07/16 02:51:40;;;;;;;8.40;1.55;;;;;;;15.61;69.65;98782.16;5011523;28;20073;-43
2023/07/16 02:54:07;;;;;;;7.38;1.17;;;;;;;15.59;69.76;98783.97;5007940;28;20048;-44
2023/07/16 02:56:34;;;;;;;6.45;1.05;;;;;;;15.59;69.85;98784.84;5008841;28;20128;-45
2023/07/16 02:59:00;;;;;;;7.30;1.70;;;;;;;15.57;69.73;98788.44;5008579;28;20100;-44
2023/07/16 03:01:27;;;;;;;5.70;1.67;;;;;;;15.47;69.84;98773.16;5007994;28;20696;-44
2023/07/16 03:03:54;;;;;;;8.52;1.23;;;;;;;15.52;69.48;98788.63;5006976;28;20065;-45
2023/07/16 03:06:21;;;;;;;8.10;1.48;;;;;;;15.50;69.95;98790.47;5008758;28;20042;-44
2023/07/16 03:08:48;;;;;;;5.25;1.20;;;;;;;15.44;69.36;98801.16;5007669;28;20756;-45
2023/07/16 03:11:15;;;;;;;7.10;1.33;;;;;;;15.40;70.07;98798.69;4999473;28;20072;-48
2023/07/16 03:13:42;;;;;;;5.28;1.15;;;;;;;15.46;69.88;98804.53;5006677;28;20049;-46
2023/07/16 03:16:08;;;;;;;3.40;1.23;;;;;;;15.47;69.36;98809.69;5004215;28;20401;-47
2023/07/16 03:18:35;;;;;;;7.13;1.38;;;;;;;15.46;69.27;98812.34;5006283;28;20049;-45
2023/07/16 03:21:01;;;;;;;8.02;1.45;;;;;;;15.45;69.16;98819.34;5007341;28;20045;-47
2023/07/16 03:23:28;;;;;;;4.50;0.95;;;;;;;15.47;69.77;98816.69;5003000;28;20660;-44
2023/07/16 03:25:55;;;;;;;4.47;1.42;;;;;;;15.48;69.64;98826.19;5001736;28;20045;-45
2023/07/16 03:28:22;;;;;;;7.43;1.67;;;;;;;15.44;69.40;98832.47;5012317;28;20046;-46
2023/07/16 03:30:50;;;;;;;6.45;1.00;;;;;;;15.46;69.67;98828.00;5026492;28;20041;-46
2023/07/16 03:33:17;;;;;;;3.20;1.25;;;;;;;15.45;69.53;98844.59;5021940;28;20049;-46
2023/07/16 03:35:45;;;;;;;7.72;1.42;;;;;;;15.45;69.13;98844.59;5018883;28;20475;-44
2023/07/16 03:38:12;;;;;;;6.30;1.15;;;;;;;15.43;69.47;98852.47;5027186;28;20041;-43
2023/07/16 03:40:39;;;;;;;6.80;1.25;;;;;;;15.44;69.43;98858.56;5025740;28;20044;-44
2023/07/16 03:43:06;;;;;;;6.70;1.92;;;;;;;15.43;69.56;98852.47;5027063;28;20049;-47
2023/07/16 03:45:33;;;;;;;2.60;1.00;;;;;;;15.40;69.52;98856.06;5027252;28;20820;-46
2023/07/16 03:48:00;;;;;;;4.50;1.48;;;;;;;15.42;69.39;98850.78;5025067;28;20044;-45
2023/07/16 03:50:27;;;;;;;4.97;1.88;;;;;;;15.42;69.72;98859.47;5009148;28;21033;-46
2023/07/16 03:52:53;;;;;;;4.50;1.55;;;;;;;15.44;69.22;98867.25;5019780;28;20050;-45
2023/07/16 03:55:21;;;;;;;6.65;1.10;;;;;;;15.41;69.55;98868.19;5027961;28;20042;-47
2023/07/16 03:57:47;;;;;;;9.48;1.85;;;;;;;15.37;69.49;98863.19;5024432;28;20095;-45
2023/07/16 04:00:14;;;;;;;10.10;1.65;;;;;;;15.39;69.50;98866.56;5021865;28;20038;-45
2023/07/16 04:02:41;;;;;;;8.13;1.77;;;;;;;15.36;69.38;98871.91;5006770;28;20050;-47
2023/07/16 04:05:08;;;;;;;9.27;1.50;;;;;;;15.34;69.12;98876.34;5003386;28;20073;-45
2023/07/16 04:07:35;;;;;;;6.70;1.60;;;;;;;15.35;69.62;98891.94;5007099;28;20050;-45
2023/07/16 04:10:03;;;;;;;6.57;2.13;;;;;;;15.33;69.37;98885.94;5006551;28;20090;-46
2023/07/16 04:12:29;;;;;;;4.65;1.48;;;;;;;15.32;69.42;98897.28;5004365;28;20046;-46
2023/07/16 04:14:58;;;;;;;7.05;1.42;;;;;;;15.32;69.13;98894.69;5007273;28;20065;-46
2023/07/16 04:17:25;;;;;;;6.45;1.05;;;;;;;15.32;69.96;98896.44;5005598;28;20069;-47
2023/07/16 04:19:52;;;;;;;5.45;1.25;;;;;;;15.30;69.92;98896.47;5005501;28;20050;-45
2023/07/16 04:22:19;;;;;;;5.68;1.05;;;;;;;15.29;69.13;98895.66;5002523;28;20050;-45
2023/07/16 04:24:45;;;;;;;3.47;0.82;;;;;;;15.31;69.19;98895.59;5006149;28;20090;-44
2023/07/16 04:27:12;;;;;;;6.78;1.90;;;;;;;15.31;69.09;98900.81;5001698;28;20049;-48
2023/07/16 04:29:39;;;;;;;4.43;1.20;;;;;;;15.28;69.34;98911.38;5006372;28;20054;-45
2023/07/16 04:32:06;;;;;;;5.72;1.17;;;;;;;15.23;69.23;98910.72;5003978;28;20061;-45
2023/07/16 04:34:32;;;;;;;3.80;0.98;;;;;;;15.22;69.30;98915.06;5011191;28;20061;-44
2023/07/16 04:36:59;;;;;;;6.07;1.25;;;;;;;15.18;69.57;98912.63;5022525;28;20420;-46
2023/07/16 04:39:26;;;;;;;4.85;1.42;;;;;;;15.16;69.22;98916.16;5025636;28;20064;-44
2023/07/16 04:41:53;;;;;;;5.30;1.55;;;;;;;15.13;69.32;98913.66;5026855;28;20057;-44
2023/07/16 04:44:19;;;;;;;4.85;1.20;;;;;;;15.12;69.48;98927.63;5017054;28;20592;-44
2023/07/16 04:46:46;;;;;;;2.28;0.88;;;;;;;15.13;69.53;98938.91;5020448;28;20045;-45
2023/07/16 04:49:13;;;;;;;8.60;1.67;;;;;;;15.10;69.26;98939.03;5017661;28;20071;-46
2023/07/16 04:51:39;;;;;;;6.00;1.15;;;;;;;15.08;69.09;98940.84;5006147;28;20046;-45
2023/07/16 04:54:06;;;;;;;4.40;0.95;;;;;;;15.07;69.69;98940.00;5006549;28;20057;-44
2023/07/16 04:56:33;;;;;;;6.30;1.10;;;;;;;15.06;69.81;98942.69;5005308;28;20472;-45
2023/07/16 04:58:59;;;;;;;9.93;1.80;;;;;;;15.03;69.40;98948.88;5006035;28;20525;-43
2023/07/16 05:01:27;;;;;;;7.88;1.50;;;;;;;15.03;69.66;98933.22;5001001;28;20472;-43
2023/07/16 05:03:54;;;;;;;8.40;2.17;;;;;;;14.97;70.14;98943.88;4999627;28;20096;-45
2023/07/16 05:06:21;;;;;;;8.30;1.48;;;;;;;14.98;69.63;98948.19;5006015;28;20121;-45
2023/07/16 05:08:47;;;;;;;7.63;0.95;;;;;;;14.99;69.61;98953.34;5000921;28;20046;-45
2023/07/16 05:11:14;;;;;;;8.15;1.98;;;;;;;15.03;69.50;98959.28;5005398;28;20064;-44
2023/07/16 05:13:41;;;;;;;5.30;1.33;;;;;;;15.07;69.70;98966.09;5005209;28;20046;-45
2023/07/16 05:16:07;;;;;;;5.10;1.17;;;;;;;15.12;70.12;98964.13;5003309;28;20670;-43
2023/07/16 05:18:35;;;;;;;5.75;1.42;;;;;;;15.24;69.48;98972.41;5006060;28;20050;-46
2023/07/16 05:21:01;;;;;;;4.15;1.40;;;;;;;15.31;69.42;98976.47;5006447;28;20056;-45
2023/07/16 05:23:28;;;;;;;7.55;1.08;;;;;;;15.34;69.63;98978.97;5003737;28;20512;-47
2023/07/16 05:25:55;;;;;;;10.90;1.15;;;;;;;15.33;69.29;98982.47;5000706;28;20773;-46
2023/07/16 05:28:21;;;;;;;6.95;1.17;;;;;;;15.36;69.48;98992.78;5005196;28;20049;-46
2023/07/16 05:30:57;;;;;;;7.10;1.42;;;;;;;15.46;69.98;98997.63;5003691;28;20049;-45
2023/07/16 05:33:24;;;;;;;9.35;1.73;;;;;;;15.56;69.51;98998.94;4994368;28;20415;-47
2023/07/16 05:35:50;;;;;;;4.72;1.60;;;;;;;15.64;69.80;99009.09;5025123;28;20053;-46
2023/07/16 05:38:17;;;;;;;4.78;1.35;;;;;;;15.67;69.39;99009.81;5021056;28;20044;-45
2023/07/16 05:40:44;;;;;;;4.25;1.00;;;;;;;15.73;69.40;99010.47;5025050;28;20501;-47
2023/07/16 05:43:11;;;;;;;9.38;1.73;;;;;;;15.79;69.39;99012.84;5020413;28;20045;-42
2023/07/16 05:45:38;;;;;;;5.30;1.30;;;;;;;15.85;68.86;99015.19;5023833;28;20048;-43
2023/07/16 05:48:04;;;;;;;6.82;1.00;;;;;;;15.88;68.69;99020.28;5026915;28;20041;-44
2023/07/16 05:50:31;;;;;;;9.95;1.38;;;;;;;15.90;68.77;99020.22;5004516;28;20080;-45
2023/07/16 05:52:58;;;;;;;5.28;0.90;;;;;;;15.93;69.37;99028.78;5003828;28;20089;-46
2023/07/16 05:55:25;;;;;;;7.53;0.98;;;;;;;15.98;68.28;99035.63;5005179;28;20082;-47
2023/07/16 05:57:53;;;;;;;8.10;1.35;;;;;;;15.96;69.21;99040.03;5003068;28;20081;-43
2023/07/16 06:00:19;;;;;;;6.18;1.27;;;;;;;15.95;68.54;99036.59;4999057;28;20060;-45
2023/07/16 06:02:46;;;;;;;4.00;1.45;;;;;;;15.94;68.98;99051.38;5003743;28;20046;-47
2023/07/16 06:05:13;;;;;;;6.63;1.52;;;;;;;15.94;69.09;99046.16;5001510;28;20038;-45
2023/07/16 06:07:39;;;;;;;5.32;1.23;;;;;;;15.96;69.33;99047.88;5004115;28;20046;-47
2023/07/16 06:10:07;;;;;;;7.60;1.13;;;;;;;16.00;68.78;99044.22;5004952;28;20052;-46
2023/07/16 06:12:33;;;;;;;6.80;1.02;;;;;;;16.01;68.85;99054.59;5004123;28;20049;-46
2023/07/16 06:15:00;;;;;;;5.53;0.82;;;;;;;16.05;68.26;99053.56;5008209;28;20426;-44
2023/07/16 06:17:27;;;;;;;4.38;1.20;;;;;;;16.13;69.05;99055.00;5008757;28;20540;-46
2023/07/16 06:19:54;;;;;;;5.18;0.95;;;;;;;16.22;68.38;99064.22;5008398;28;20060;-43
2023/07/16 06:22:20;;;;;;;5.05;0.88;;;;;;;16.29;69.02;99060.44;5009166;28;20053;-45
2023/07/16 06:24:47;;;;;;;7.60;1.60;;;;;;;16.36;68.23;99072.34;5009221;28;20108;-45
2023/07/16 06:27:14;;;;;;;6.55;1.10;;;;;;;16.56;68.98;99078.47;5006091;28;20057;-43
2023/07/16 06:29:41;;;;;;;5.32;1.17;;;;;;;16.75;68.79;99081.13;5007845;28;20057;-45
2023/07/16 06:32:08;;;;;;;6.47;0.93;;;;;;;16.90;68.69;99082.22;5007839;28;20042;-45
2023/07/16 06:34:34;;;;;;;5.22;1.25;;;;;;;17.06;69.05;99086.81;5006478;28;20054;-44
2023/07/16 06:37:01;;;;;;;4.90;1.17;;;;;;;17.21;68.61;99080.88;5008250;28;20046;-48
2023/07/16 06:39:28;;;;;;;4.78;1.40;;;;;;;17.36;67.58;99098.56;4998080;28;20054;-44
2023/07/16 06:41:54;;;;;;;3.80;0.90;;;;;;;17.55;67.87;99099.38;5002368;28;20042;-44
2023/07/16 06:44:23;;;;;;;3.65;1.27;;;;;;;17.77;68.33;99100.13;5009050;28;20050;-46
2023/07/16 06:46:50;;;;;;;7.55;1.38;;;;;;;17.94;67.00;99108.00;5007675;28;20042;-45
2023/07/16 06:49:16;;;;;;;3.45;0.93;;;;;;;17.97;66.46;99113.09;5004531;28;20053;-47
2023/07/16 06:51:43;;;;;;;7.88;1.00;;;;;;;17.98;66.34;99116.59;5008601;28;20065;-46
2023/07/16 06:54:10;;;;;;;4.70;0.88;;;;;;;18.01;66.32;99115.59;5004149;28;20050;-46
2023/07/16 06:56:36;;;;;;;4.47;1.33;;;;;;;18.14;66.54;99121.97;5007723;28;20050;-46
2023/07/16 06:59:03;;;;;;;6.05;0.90;;;;;;;18.36;66.04;99129.59;5007817;28;20054;-45
2023/07/16 07:01:30;;;;;;;3.95;0.70;;;;;;;18.46;65.33;99127.38;5005712;28;20054;-44
2023/07/16 07:03:56;;;;;;;6.30;1.40;;;;;;;18.57;65.48;99124.19;5007264;28;20081;-45
2023/07/16 07:06:23;;;;;;;5.68;1.10;;;;;;;18.65;65.02;99125.59;5006960;28;20787;-45
2023/07/16 07:08:51;;;;;;;4.03;0.80;;;;;;;18.70;64.25;99145.41;5006261;28;20053;-45
2023/07/16 07:11:18;;;;;;;7.25;1.73;;;;;;;18.79;64.53;99137.97;5001037;28;20042;-46
2023/07/16 07:13:45;;;;;;;2.40;0.88;;;;;;;18.84;63.70;99146.44;5003045;28;20049;-46
2023/07/16 07:16:12;;;;;;;6.25;1.27;;;;;;;18.79;63.45;99151.09;5006055;28;20225;-45
2023/07/16 07:18:38;;;;;;;5.07;1.58;;;;;;;18.75;63.24;99148.63;5002215;28;20060;-44
2023/07/16 07:21:05;;;;;;;7.32;0.93;;;;;;;18.69;63.10;99156.81;5007272;28;20466;-47
2023/07/16 07:23:32;;;;;;;1.98;0.85;;;;;;;18.61;63.34;99148.50;5004934;28;20477;-45
2023/07/16 07:25:59;;;;;;;5.70;1.00;;;;;;;18.58;63.12;99156.53;5007427;28;20054;-49
2023/07/16 07:28:27;;;;;;;6.65;0.98;;;;;;;18.53;63.49;99169.00;5007568;28;20585;-45
2023/07/16 07:30:54;;;;;;;3.90;1.65;;;;;;;18.55;63.37;99172.41;5005007;28;20073;-45
2023/07/16 07:33:21;;;;;;;6.13;0.82;;;;;;;18.53;63.61;99174.25;5006516;28;20081;-46
2023/07/16 07:35:48;;;;;;;4.07;1.63;;;;;;;18.53;63.06;99169.00;5007043;28;20469;-48
2023/07/16 07:38:14;;;;;;;3.85;1.05;;;;;;;18.45;63.21;99188.59;4999834;28;20046;-46
2023/07/16 07:40:43;;;;;;;2.55;0.60;;;;;;;18.39;63.12;99188.91;5005743;28;20042;-46
2023/07/16 07:43:10;;;;;;;5.80;1.63;;;;;;;18.39;63.32;99188.91;5005795;28;20045;-44
2023/07/16 07:45:37;;;;;;;5.53;1.23;;;;;;;18.41;63.38;99201.94;5004343;28;20037;-43
2023/07/16 07:48:04;;;;;;;7.22;0.82;;;;;;;18.44;63.59;99201.78;5002345;28;20505;-45
2023/07/16 07:50:31;;;;;;;5.50;1.17;;;;;;;18.46;63.11;99198.16;5000274;28;20142;-43
2023/07/16 07:52:57;;;;;;;6.20;0.68;;;;;;;18.57;62.68;99207.25;5003420;28;20049;-43
2023/07/16 07:55:24;;;;;;;4.25;1.13;;;;;;;18.57;62.68;99202.00;5001317;28;20073;-45
2023/07/16 07:57:51;;;;;;;3.55;1.02;;;;;;;18.53;62.49;99210.94;5005773;28;20049;-46
2023/07/16 08:00:18;;;;;;;4.93;0.93;;;;;;;18.54;62.76;99212.66;5003730;28;20042;-44
2023/07/16 08:02:45;;;;;;;4.03;1.42;;;;;;;18.63;63.05;99217.44;5001392;28;20666;-46
2023/07/16 08:05:11;;;;;;;4.50;0.95;;;;;;;18.84;62.89;99217.28;5006325;28;20046;-47
2023/07/16 08:07:38;;;;;;;8.13;1.60;;;;;;;18.85;61.85;99221.63;5001681;28;20054;-47
2023/07/16 08:10:05;;;;;;;3.63;1.10;;;;;;;18.79;62.41;99221.91;5005899;28;20049;-43
2023/07/16 08:12:32;;;;;;;3.30;0.70;;;;;;;18.72;62.17;99237.13;5001809;28;20053;-43
2023/07/16 08:14:58;;;;;;;6.05;0.85;;;;;;;18.70;62.35;99237.19;5006162;28;20513;-45
2023/07/16 08:17:26;;;;;;;6.03;0.95;;;;;;;18.75;62.08;99242.22;5006540;28;20628;-45
2023/07/16 08:19:53;;;;;;;2.83;1.17;;;;;;;18.80;62.60;99240.22;5006432;28;20325;-44
2023/07/16 08:22:19;;;;;;;3.00;0.88;;;;;;;18.89;62.13;99249.41;5001953;28;20058;-45
2023/07/16 08:24:46;;;;;;;2.55;0.50;;;;;;;18.97;62.76;99255.09;5000653;28;20054;-45
2023/07/16 08:27:13;;;;;;;4.13;1.10;;;;;;;19.05;62.29;99259.13;5006632;28;20046;-47
2023/07/16 08:29:39;;;;;;;4.90;0.90;;;;;;;19.09;61.52;99260.69;5005583;28;20052;-48
2023/07/16 08:32:06;;;;;;;4.30;0.70;;;;;;;19.09;62.08;99261.56;5004835;28;20604;-44
2023/07/16 08:34:33;;;;;;;3.15;0.65;;;;;;;19.02;61.74;99260.97;5002278;28;20053;-45
2023/07/16 08:37:00;;;;;;;1.92;0.63;;;;;;;19.06;62.08;99266.06;5001863;28;20042;-45
2023/07/16 08:39:26;;;;;;;3.90;1.10;;;;;;;19.12;62.03;99269.25;5003912;28;20054;-45
2023/07/16 08:41:53;;;;;;;5.07;1.45;;;;;;;19.18;62.20;99265.47;5006612;28;20054;-44
2023/07/16 08:44:21;;;;;;;3.55;1.13;;;;;;;19.24;62.25;99259.03;5003861;28;20045;-46
2023/07/16 08:46:47;;;;;;;5.30;1.02;;;;;;;19.32;61.77;99271.78;5003956;28;20116;-46
2023/07/16 08:49:17;;;;;;;3.38;0.68;;;;;;;19.34;61.72;99275.16;5001480;28;20072;-46
2023/07/16 08:51:47;;;;;;;2.78;0.75;;;;;;;19.33;61.88;99268.22;4999422;28;20064;-44
2023/07/16 08:54:16;;;;;;;4.43;0.80;;;;;;;19.31;61.37;99288.44;5006594;28;20133;-46
2023/07/16 08:56:44;;;;;;;2.22;0.43;;;;;;;19.26;61.67;99275.56;5006366;28;20054;-47
2023/07/16 08:59:11;;;;;;;3.00;1.60;;;;;;;19.21;61.46;99281.06;5005925;28;20115;-43
2023/07/16 09:01:38;;;;;;;3.95;1.10;;;;;;;19.17;61.03;99284.75;5006041;28;20056;-42
2023/07/16 09:04:04;;;;;;;1.70;0.65;;;;;;;19.15;61.18;99278.72;5005742;28;20050;-44
2023/07/16 09:09:20;;;;;;;3.08;1.83;;;;;;;19.25;61.28;99298.34;5065097;27;20360;-46
2023/07/16 09:11:48;;;;;;;2.72;1.50;;;;;;;19.37;61.35;99301.28;5004068;28;20052;-47
2023/07/16 09:14:17;;;;;;;2.95;1.75;;;;;;;19.39;60.85;99304.69;5003775;28;20073;-46
2023/07/16 09:16:48;;;;;;;2.75;1.73;;;;;;;19.37;60.87;99314.41;5003698;28;20052;-43
2023/07/16 09:19:17;;;;;;;2.65;1.73;;;;;;;19.34;60.37;99309.28;4998607;28;20050;-44
2023/07/16 09:21:49;;;;;;;2.35;1.85;;;;;;;19.30;60.29;99320.88;5002544;28;20057;-47
2023/07/16 09:24:16;;;;;;;3.92;1.90;;;;;;;19.31;60.36;99312.06;5003770;28;20119;-46
2023/07/16 09:26:56;;;;;;;2.80;2.10;;;;;;;19.35;60.82;99311.00;4998715;28;20046;-45
2023/07/16 09:29:27;;;;;;;3.45;1.85;;;;;;;19.43;60.37;99316.72;5003053;28;20061;-45
2023/07/16 09:31:56;;;;;;;3.28;3.00;;;;;;;19.49;60.58;99321.63;5002082;28;20045;-45
2023/07/16 09:34:23;;;;;;;4.10;2.53;;;;;;;19.55;60.09;99325.72;5001093;28;20050;-47
2023/07/16 09:36:50;;;;;;;2.10;1.77;;;;;;;19.57;60.38;99326.50;5002198;28;20072;-46
2023/07/16 09:39:19;;;;;;;3.88;2.13;;;;;;;19.61;59.64;99324.56;5000835;28;20133;-46
2023/07/16 09:41:48;;;;;;;2.80;1.92;;;;;;;19.74;60.07;99325.63;4999778;28;20121;-47
2023/07/16 09:44:16;;;;;;;1.67;1.58;;;;;;;19.98;60.13;99321.75;4996280;28;20068;-45
2023/07/16 09:46:44;;;;;;;5.25;1.67;;;;;;;20.21;59.61;99312.66;5004028;28;20056;-44
2023/07/16 09:49:12;;;;;;;2.33;2.20;;;;;;;20.32;58.52;99316.47;5001368;28;20053;-45
2023/07/16 09:51:39;;;;;;;2.67;2.47;;;;;;;20.41;58.63;99318.59;4999287;28;20486;-46
2023/07/16 09:54:06;;;;;;;3.45;2.08;;;;;;;20.50;57.99;99323.34;5003567;28;20524;-43
2023/07/16 09:56:37;;;;;;;2.67;1.75;;;;;;;20.56;58.01;99322.16;5001481;28;20049;-46
2023/07/16 09:59:10;;;;;;;4.32;1.65;;;;;;;20.59;57.55;99337.75;5002816;28;20057;-48
2023/07/16 10:01:39;;;;;;;3.97;1.83;;;;;;;20.62;57.68;99324.44;4998649;28;20038;-48
2023/07/16 10:04:15;;;;;;;2.40;2.03;;;;;;;20.79;58.34;99323.50;5002375;28;20054;-47
2023/07/16 10:07:01;;;;;;;3.33;2.08;;;;;;;21.11;58.71;99327.84;5002618;28;20054;-44
2023/07/16 10:09:54;;;;;;;2.60;1.77;;;;;;;21.47;58.71;99327.56;4996931;28;20516;-48
2023/07/16 10:12:22;;;;;;;3.38;1.65;;;;;;;21.70;57.20;99334.94;5027221;28;20042;-48
2023/07/16 10:14:51;;;;;;;2.80;1.45;;;;;;;21.77;56.47;99322.25;4999515;28;20047;-45
2023/07/16 10:17:20;;;;;;;3.05;2.40;;;;;;;21.85;56.77;99340.22;5002838;28;20112;-46
2023/07/16 10:22:40;;;;;;;0.98;0.50;;;;;;;22.18;56.55;99338.22;5049825;28;20394;-47
2023/07/16 10:25:21;;;;;;;5.40;0.88;;;;;;;22.42;56.17;99335.81;5020666;28;20038;-47
2023/07/16 10:27:51;;;;;;;2.47;0.88;;;;;;;22.71;55.13;99341.06;5022263;28;20049;-44
2023/07/16 10:30:18;;;;;;;2.15;0.55;;;;;;;22.96;54.88;99339.44;5023471;28;20053;-46
2023/07/16 10:32:46;;;;;;;0.73;0.40;;;;;;;23.10;54.77;99341.16;5022407;28;20049;-47
2023/07/16 10:35:14;;;;;;;3.58;1.05;;;;;;;23.19;54.12;99349.41;5022840;28;20045;-45
2023/07/16 10:37:41;;;;;;;1.70;0.40;;;;;;;23.09;53.16;99339.47;5033511;28;20072;-46
2023/07/16 10:40:11;;;;;;;2.35;0.63;;;;;;;22.98;53.39;99339.34;5034754;28;20365;-49
2023/07/16 10:42:41;;;;;;;3.42;0.73;;;;;;;22.94;53.70;99351.03;5037692;28;20129;-46
2023/07/16 10:45:07;;;;;;;;;;;;;;;22.79;54.51;99351.09;5034171;28;20468;-45
2023/07/16 10:47:37;;;;;;;1.50;0.50;;;;;;;22.87;54.18;99350.63;5033820;28;20412;-49
2023/07/16 10:50:06;;;;;;;2.85;0.60;;;;;;;22.88;53.19;99367.28;5036738;28;20053;-44
2023/07/16 10:52:32;;;;;;;1.95;0.68;;;;;;;22.87;53.17;99355.88;5035506;28;20382;-48
2023/07/16 10:54:59;;;;;;;1.88;0.70;;;;;;;22.82;54.09;99353.53;5030780;28;20045;-47
2023/07/16 10:57:27;;;;;;;5.00;0.70;;;;;;;22.87;54.16;99355.03;5039535;28;20565;-47
2023/07/16 10:59:57;;;;;;;3.60;0.77;;;;;;;22.95;54.46;99352.72;5041404;28;20076;-48
2023/07/16 11:02:25;;;;;;;3.00;0.57;;;;;;;23.11;54.69;99358.69;5042464;28;20466;-45
2023/07/16 11:04:53;;;;;;;3.20;0.60;;;;;;;23.35;53.84;99359.81;5045387;28;20618;-46
2023/07/16 11:07:21;;;;;;;1.95;0.63;;;;;;;23.56;53.50;99357.53;5042509;28;20076;-44
2023/07/16 11:09:50;;;;;;;1.30;0.55;;;;;;;23.69;53.05;99356.66;5038132;28;20045;-47
2023/07/16 11:12:21;;;;;;;1.95;0.47;;;;;;;23.68;51.77;99357.63;5042801;28;20588;-45
2023/07/16 11:14:51;;;;;;;2.45;0.32;;;;;;;23.61;52.17;99365.97;5040266;28;20049;-47
2023/07/16 11:17:21;;;;;;;3.50;0.50;;;;;;;23.47;52.32;99374.03;5042160;28;20140;-48
2023/07/16 11:19:49;;;;;;;2.63;0.40;;;;;;;23.39;52.27;99376.31;5041972;28;20048;-47
2023/07/16 11:22:16;;;;;;;3.35;0.60;;;;;;;23.33;52.95;99366.97;5042064;28;20049;-50
2023/07/16 11:24:46;;;;;;;2.67;0.98;;;;;;;23.32;52.88;99371.41;5040044;28;20049;-46
2023/07/16 11:35:08;;;;;;;3.63;0.85;;;;;;;24.24;53.11;99367.00;5039926;27;21108;-46
2023/07/16 11:37:36;;;;;;;1.42;1.02;;;;;;;24.42;52.45;99374.59;5027435;28;20136;-48
2023/07/16 11:40:08;;;;;;;2.13;0.90;;;;;;;24.44;51.66;99370.88;5028402;28;20333;-48
2023/07/16 11:42:37;;;;;;;2.08;1.38;;;;;;;24.41;51.40;99367.63;5007250;28;20440;-48
2023/07/16 11:45:05;;;;;;;2.90;0.80;;;;;;;24.41;51.00;99367.63;5043607;28;20045;-47
2023/07/16 11:47:31;;;;;;;2.38;0.70;;;;;;;24.39;51.69;99365.09;5042751;28;20632;-48
2023/07/16 11:49:58;;;;;;;3.33;1.13;;;;;;;24.40;51.66;99369.41;5041282;28;20061;-50
2023/07/16 11:52:27;;;;;;;1.90;0.73;;;;;;;24.48;52.07;99374.13;5043053;28;20131;-45
2023/07/16 11:55:03;;;;;;;2.47;1.45;;;;;;;24.39;51.26;99370.38;5045243;28;20099;-50